createdAt,value
2022-11-13T00:00:07.934Z,50.37
2022-11-13T00:02:34.086Z,50.28
2022-11-13T00:05:00.211Z,50.33
2022-11-13T00:07:26.346Z,50.55
2022-11-13T00:09:52.472Z,50.99
2022-11-13T00:12:18.579Z,51.25
2022-11-13T00:14:44.683Z,50.99
2022-11-13T00:17:10.769Z,50.69
2022-11-13T00:19:36.865Z,50.33
2022-11-13T00:22:02.992Z,50.18
2022-11-13T00:24:29.073Z,49.77
2022-11-13T00:26:55.163Z,49.62
2022-11-13T00:29:21.266Z,49.53
2022-11-13T00:31:47.361Z,49.39
2022-11-13T00:34:40.889Z,49.18
2022-11-13T00:36:59.556Z,49.22
2022-11-13T00:39:25.644Z,49.02
2022-11-13T00:41:51.735Z,49.14
2022-11-13T00:44:18.065Z,49.05
2022-11-13T00:46:44.163Z,49.22
2022-11-13T00:49:10.270Z,49.14
2022-11-13T00:51:36.848Z,49.28
2022-11-13T00:54:02.953Z,49.32
2022-11-13T00:56:29.052Z,49.33
2022-11-13T00:58:55.154Z,49.30
2022-11-13T01:01:21.313Z,49.35
2022-11-13T01:03:47.441Z,49.34
2022-11-13T01:06:13.558Z,49.41
2022-11-13T01:08:39.657Z,49.50
2022-11-13T01:11:05.753Z,49.56
2022-11-13T01:13:31.887Z,49.61
2022-11-13T01:15:57.987Z,49.65
2022-11-13T01:18:24.159Z,49.64
2022-11-13T01:20:50.303Z,49.64
2022-11-13T01:23:16.401Z,49.92
2022-11-13T01:25:42.499Z,49.91
2022-11-13T01:28:08.612Z,49.96
2022-11-13T01:30:34.704Z,50.10
2022-11-13T01:33:03.020Z,50.08
2022-11-13T01:35:29.146Z,49.93
2022-11-13T01:37:55.244Z,50.11
2022-11-13T01:40:21.345Z,50.13
2022-11-13T01:42:47.453Z,50.11
2022-11-13T01:45:13.545Z,50.29
2022-11-13T01:47:39.635Z,50.13
2022-11-13T01:50:05.798Z,50.44
2022-11-13T01:52:31.884Z,50.49
2022-11-13T01:54:57.982Z,50.40
2022-11-13T01:57:24.079Z,50.26
2022-11-13T01:59:50.173Z,50.35
2022-11-13T02:02:16.263Z,50.43
2022-11-13T02:04:42.360Z,50.29
2022-11-13T02:07:08.488Z,50.30
2022-11-13T02:09:34.668Z,50.41
2022-11-13T02:12:00.825Z,50.39
2022-11-13T02:14:26.927Z,50.24
2022-11-13T02:16:53.024Z,49.58
2022-11-13T02:19:19.145Z,49.54
2022-11-13T02:21:45.228Z,49.51
2022-11-13T02:24:11.329Z,49.17
2022-11-13T02:26:37.443Z,49.28
2022-11-13T02:29:03.553Z,49.38
2022-11-13T02:31:29.637Z,49.28
2022-11-13T02:33:55.760Z,49.14
2022-11-13T02:36:21.848Z,49.29
2022-11-13T02:38:47.949Z,48.89
2022-11-13T02:41:14.056Z,48.86
2022-11-13T02:43:40.145Z,48.93
2022-11-13T02:46:06.253Z,48.74
2022-11-13T02:48:32.361Z,48.55
2022-11-13T02:50:58.450Z,48.67
2022-11-13T02:53:24.556Z,48.44
2022-11-13T02:55:50.712Z,48.48
2022-11-13T02:58:16.811Z,48.52
2022-11-13T03:00:42.906Z,48.55
2022-11-13T03:03:09.022Z,48.07
2022-11-13T03:05:35.116Z,47.97
2022-11-13T03:08:01.199Z,47.98
2022-11-13T03:10:27.392Z,47.94
2022-11-13T03:12:53.521Z,47.96
2022-11-13T03:15:19.700Z,47.82
2022-11-13T03:17:45.812Z,47.72
2022-11-13T03:20:11.921Z,47.48
2022-11-13T03:22:38.015Z,47.48
2022-11-13T03:25:09.934Z,47.55
2022-11-13T03:27:36.707Z,47.23
2022-11-13T03:30:02.801Z,47.09
2022-11-13T03:32:28.903Z,46.96
2022-11-13T03:34:55.012Z,46.90
2022-11-13T03:37:21.105Z,46.82
2022-11-13T03:39:47.212Z,46.67
2022-11-13T03:42:13.302Z,46.44
2022-11-13T03:44:39.397Z,46.32
2022-11-13T03:47:05.507Z,46.33
2022-11-13T03:49:31.583Z,46.18
2022-11-13T03:51:57.668Z,45.98
2022-11-13T03:54:24.544Z,45.98
2022-11-13T03:56:50.636Z,45.31
2022-11-13T03:59:16.753Z,45.18
2022-11-13T04:01:42.946Z,45.04
2022-11-13T04:04:09.076Z,44.91
2022-11-13T04:06:35.188Z,44.79
2022-11-13T04:09:01.300Z,44.64
2022-11-13T04:11:27.394Z,44.74
2022-11-13T04:13:53.629Z,44.57
2022-11-13T04:16:19.788Z,44.85
2022-11-13T04:18:45.890Z,45.36
2022-11-13T04:21:11.999Z,45.95
2022-11-13T04:23:38.101Z,46.21
2022-11-13T04:26:04.194Z,46.12
2022-11-13T04:28:30.668Z,46.21
2022-11-13T04:30:56.985Z,45.86
2022-11-13T04:33:23.096Z,45.75
2022-11-13T04:35:49.214Z,45.65
2022-11-13T04:38:15.334Z,45.41
2022-11-13T04:40:41.435Z,45.52
2022-11-13T04:43:07.519Z,45.88
2022-11-13T04:45:33.650Z,46.06
2022-11-13T04:47:59.741Z,46.24
2022-11-13T04:50:25.834Z,46.14
2022-11-13T04:52:51.951Z,46.10
2022-11-13T04:55:18.036Z,46.22
2022-11-13T04:57:44.141Z,45.94
2022-11-13T05:00:10.264Z,45.95
2022-11-13T05:02:36.346Z,45.85
2022-11-13T05:05:05.274Z,46.36
2022-11-13T05:07:31.668Z,46.47
2022-11-13T05:09:57.760Z,46.70
2022-11-13T05:12:23.846Z,46.69
2022-11-13T05:14:49.961Z,46.51
2022-11-13T05:17:16.043Z,46.37
2022-11-13T05:19:42.127Z,46.37
2022-11-13T05:22:08.233Z,46.19
2022-11-13T05:24:34.335Z,46.00
2022-11-13T05:27:00.459Z,45.82
2022-11-13T05:29:26.576Z,45.97
2022-11-13T05:31:52.674Z,46.72
2022-11-13T05:34:18.771Z,47.43
2022-11-13T05:36:44.892Z,47.70
2022-11-13T05:39:10.994Z,47.97
2022-11-13T05:41:37.093Z,48.34
2022-11-13T05:44:03.201Z,48.38
2022-11-13T05:46:29.306Z,49.01
2022-11-13T05:48:55.395Z,49.26
2022-11-13T05:51:21.492Z,49.80
2022-11-13T05:53:47.593Z,50.25
2022-11-13T05:56:13.675Z,50.65
2022-11-13T05:58:40.120Z,51.08
2022-11-13T06:01:06.213Z,51.21
2022-11-13T06:03:32.324Z,51.53
2022-11-13T06:05:58.921Z,52.03
2022-11-13T06:08:25.132Z,51.92
2022-11-13T06:10:51.253Z,52.13
2022-11-13T06:13:17.391Z,52.77
2022-11-13T06:15:43.471Z,52.72
2022-11-13T06:18:09.579Z,52.71
2022-11-13T06:20:35.722Z,52.77
2022-11-13T06:23:01.818Z,52.74
2022-11-13T06:25:27.928Z,52.85
2022-11-13T06:27:54.042Z,53.26
2022-11-13T06:30:20.138Z,53.57
2022-11-13T06:32:46.224Z,53.88
2022-11-13T06:35:12.344Z,53.74
2022-11-13T06:37:38.432Z,53.83
2022-11-13T06:40:04.519Z,53.98
2022-11-13T06:42:30.632Z,54.48
2022-11-13T06:44:56.735Z,54.57
2022-11-13T06:47:22.823Z,54.49
2022-11-13T06:49:48.919Z,54.69
2022-11-13T06:52:15.021Z,54.90
2022-11-13T06:54:41.105Z,55.02
2022-11-13T06:57:07.253Z,54.74
2022-11-13T06:59:33.353Z,54.96
2022-11-13T07:01:59.458Z,55.10
2022-11-13T07:04:25.654Z,55.00
2022-11-13T07:06:51.836Z,54.71
2022-11-13T07:09:17.959Z,54.95
2022-11-13T07:11:44.135Z,55.03
2022-11-13T07:14:10.231Z,55.38
2022-11-13T07:17:04.172Z,55.24
2022-11-13T07:19:22.419Z,55.27
2022-11-13T07:21:48.498Z,55.12
2022-11-13T07:24:17.059Z,55.60
2022-11-13T07:26:43.411Z,55.34
2022-11-13T07:29:09.509Z,55.53
2022-11-13T07:31:35.608Z,55.34
2022-11-13T07:34:01.730Z,55.25
2022-11-13T07:36:27.824Z,55.28
2022-11-13T07:38:59.193Z,55.43
2022-11-13T07:41:26.288Z,55.29
2022-11-13T07:43:52.373Z,55.51
2022-11-13T07:46:18.465Z,55.82
2022-11-13T07:48:44.577Z,55.77
2022-11-13T07:51:10.681Z,55.70
2022-11-13T07:53:36.786Z,55.79
2022-11-13T07:56:02.929Z,55.47
2022-11-13T07:58:29.394Z,55.90
2022-11-13T08:00:55.736Z,55.79
2022-11-13T08:03:21.874Z,55.74
2022-11-13T08:05:47.966Z,55.73
2022-11-13T08:08:14.059Z,55.86
2022-11-13T08:10:40.177Z,55.91
2022-11-13T08:13:06.268Z,55.67
2022-11-13T08:15:32.365Z,55.84
2022-11-13T08:17:58.473Z,55.83
2022-11-13T08:20:24.584Z,55.58
2022-11-13T08:22:50.694Z,55.77
2022-11-13T08:25:16.808Z,55.81
2022-11-13T08:27:42.903Z,55.89
2022-11-13T08:30:08.991Z,55.75
2022-11-13T08:32:35.132Z,55.55
2022-11-13T08:35:01.230Z,55.43
2022-11-13T08:37:27.336Z,55.08
2022-11-13T08:39:53.473Z,55.14
2022-11-13T08:42:19.569Z,55.18
2022-11-13T08:44:45.662Z,55.02
2022-11-13T08:47:11.766Z,54.69
2022-11-13T08:49:37.864Z,54.56
2022-11-13T08:52:03.982Z,54.50
2022-11-13T08:54:30.100Z,54.00
2022-11-13T08:56:59.652Z,53.97
2022-11-13T08:59:28.159Z,54.13
2022-11-13T09:01:54.256Z,54.09
2022-11-13T09:04:20.348Z,53.86
2022-11-13T09:06:46.548Z,53.68
2022-11-13T09:09:12.720Z,53.57
2022-11-13T09:11:38.821Z,53.03
2022-11-13T09:14:04.911Z,52.97
2022-11-13T09:16:31.502Z,52.52
2022-11-13T09:18:57.600Z,52.35
2022-11-13T09:21:23.717Z,52.09
2022-11-13T09:23:49.842Z,51.83
2022-11-13T09:26:15.945Z,51.67
2022-11-13T09:28:42.036Z,51.52
2022-11-13T09:31:08.167Z,51.46
2022-11-13T09:33:34.286Z,51.22
2022-11-13T09:36:00.385Z,51.05
2022-11-13T09:38:26.640Z,50.86
2022-11-13T09:40:52.925Z,50.70
2022-11-13T09:43:19.024Z,50.59
2022-11-13T09:45:45.141Z,50.48
2022-11-13T09:48:11.236Z,50.18
2022-11-13T09:50:37.489Z,50.22
2022-11-13T09:53:03.632Z,50.16
2022-11-13T09:55:29.711Z,50.03
2022-11-13T09:57:55.821Z,50.25
2022-11-13T10:00:22.080Z,50.26
2022-11-13T10:02:48.196Z,50.48
2022-11-13T10:05:14.290Z,50.61
2022-11-13T10:07:40.741Z,50.90
2022-11-13T10:10:06.834Z,51.01
2022-11-13T10:12:32.929Z,51.25
2022-11-13T10:14:59.028Z,51.45
2022-11-13T10:17:25.108Z,51.46
2022-11-13T10:19:51.196Z,51.43
2022-11-13T10:22:34.376Z,51.30
2022-11-13T10:25:00.891Z,51.13
2022-11-13T10:27:27.049Z,50.92
2022-11-13T10:29:53.174Z,50.64
2022-11-13T10:32:19.305Z,50.53
2022-11-13T10:34:45.408Z,50.37
2022-11-13T10:37:11.494Z,50.25
2022-11-13T10:39:37.573Z,49.96
2022-11-13T10:42:03.682Z,50.01
2022-11-13T10:44:29.787Z,50.19
2022-11-13T10:46:55.879Z,50.04
2022-11-13T10:49:21.980Z,49.64
2022-11-13T10:51:48.072Z,49.46
2022-11-13T10:54:14.169Z,49.38
2022-11-13T10:56:40.271Z,49.40
2022-11-13T10:59:06.360Z,49.48
2022-11-13T11:01:32.506Z,49.51
2022-11-13T11:03:58.650Z,49.93
2022-11-13T11:06:41.959Z,49.90
2022-11-13T11:09:11.402Z,49.56
2022-11-13T11:11:37.502Z,49.54
2022-11-13T11:14:03.654Z,49.42
2022-11-13T11:16:29.866Z,49.35
2022-11-13T11:18:55.985Z,49.17
2022-11-13T11:21:22.081Z,49.14
2022-11-13T11:23:51.824Z,49.00
2022-11-13T11:26:21.813Z,48.86
2022-11-13T11:28:47.934Z,48.85
2022-11-13T11:31:14.048Z,48.63
2022-11-13T11:33:40.151Z,48.41
2022-11-13T11:36:06.252Z,48.51
2022-11-13T11:38:32.546Z,48.40
2022-11-13T11:40:58.686Z,48.13
2022-11-13T11:43:24.771Z,48.18
2022-11-13T11:45:50.893Z,48.09
2022-11-13T11:48:16.994Z,48.09
2022-11-13T11:50:43.097Z,48.02
2022-11-13T11:53:09.207Z,48.09
2022-11-13T11:55:35.306Z,48.15
2022-11-13T11:58:01.392Z,47.95
2022-11-13T12:00:27.593Z,47.76
2022-11-13T12:02:53.719Z,47.52
2022-11-13T12:05:20.403Z,47.46
2022-11-13T12:07:46.667Z,47.28
2022-11-13T12:10:12.765Z,47.17
2022-11-13T12:12:38.861Z,47.15
2022-11-13T12:15:05.002Z,47.11
2022-11-13T12:17:31.100Z,47.35
2022-11-13T12:19:57.189Z,47.51
2022-11-13T12:22:25.864Z,47.55
2022-11-13T12:24:55.835Z,47.72
2022-11-13T12:27:21.943Z,48.04
2022-11-13T12:29:48.055Z,48.58
2022-11-13T12:32:14.166Z,48.85
2022-11-13T12:34:40.352Z,49.07
2022-11-13T12:37:06.517Z,49.16
2022-11-13T12:39:32.638Z,49.56
2022-11-13T12:41:58.759Z,49.40
2022-11-13T12:44:24.856Z,49.51
2022-11-13T12:46:51.006Z,49.44
2022-11-13T12:49:17.108Z,49.49
2022-11-13T12:51:43.233Z,49.34
2022-11-13T12:54:09.335Z,49.30
2022-11-13T12:56:35.433Z,49.05
2022-11-13T12:59:29.148Z,48.94
2022-11-13T13:01:50.619Z,48.96
2022-11-13T13:04:16.792Z,48.74
2022-11-13T13:06:42.979Z,48.61
2022-11-13T13:09:09.114Z,48.50
2022-11-13T13:11:35.251Z,48.47
2022-11-13T13:14:01.352Z,48.33
2022-11-13T13:16:27.453Z,48.15
2022-11-13T13:18:53.568Z,48.21
2022-11-13T13:21:19.671Z,48.17
2022-11-13T13:23:45.817Z,48.26
2022-11-13T13:26:12.407Z,48.33
2022-11-13T13:28:38.494Z,48.18
2022-11-13T13:31:04.651Z,48.29
2022-11-13T13:33:30.761Z,48.62
2022-11-13T13:35:56.854Z,48.32
2022-11-13T13:38:22.939Z,48.33
2022-11-13T13:40:49.036Z,48.63
2022-11-13T13:43:15.138Z,48.78
2022-11-13T13:45:41.236Z,48.98
2022-11-13T13:48:07.349Z,49.33
2022-11-13T13:50:33.448Z,49.47
2022-11-13T13:52:59.543Z,49.75
2022-11-13T13:55:25.653Z,49.83
2022-11-13T13:57:51.753Z,49.99
2022-11-13T14:00:17.863Z,50.25
2022-11-13T14:02:43.985Z,50.34
2022-11-13T14:05:10.099Z,50.76
2022-11-13T14:07:36.201Z,50.90
2022-11-13T14:10:02.308Z,51.12
2022-11-13T14:12:28.392Z,51.40
2022-11-13T14:14:54.484Z,51.70
2022-11-13T14:17:21.565Z,51.92
2022-11-13T14:19:47.661Z,52.22
2022-11-13T14:22:13.759Z,52.35
2022-11-13T14:24:39.889Z,52.53
2022-11-13T14:27:06.056Z,52.74
2022-11-13T14:29:32.143Z,52.99
2022-11-13T14:31:58.731Z,53.32
2022-11-13T14:34:24.817Z,53.38
2022-11-13T14:36:50.910Z,53.71
2022-11-13T14:39:17.026Z,53.93
2022-11-13T14:41:43.135Z,54.10
2022-11-13T14:44:09.232Z,54.22
2022-11-13T14:46:35.332Z,54.29
2022-11-13T14:49:01.421Z,54.59
2022-11-13T14:51:27.511Z,54.57
2022-11-13T14:53:53.854Z,54.63
2022-11-13T14:56:19.950Z,54.67
2022-11-13T14:58:46.082Z,54.85
2022-11-13T15:01:12.199Z,54.92
2022-11-13T15:03:38.501Z,54.96
2022-11-13T15:06:04.628Z,55.07
2022-11-13T15:08:30.761Z,54.89
2022-11-13T15:10:56.873Z,54.94
2022-11-13T15:13:22.970Z,54.92
2022-11-13T15:15:49.094Z,55.20
2022-11-13T15:18:15.175Z,55.06
2022-11-13T15:20:41.307Z,55.24
2022-11-13T15:23:08.240Z,55.19
2022-11-13T15:25:34.330Z,55.18
2022-11-13T15:28:00.415Z,55.29
2022-11-13T15:30:26.561Z,55.34
2022-11-13T15:32:52.652Z,55.40
2022-11-13T15:35:18.745Z,55.40
2022-11-13T15:37:44.869Z,55.54
2022-11-13T15:40:10.973Z,55.68
2022-11-13T15:42:37.074Z,55.75
2022-11-13T15:45:03.199Z,55.85
2022-11-13T15:47:29.304Z,55.76
2022-11-13T15:50:13.988Z,55.89
2022-11-13T15:52:40.807Z,55.96
2022-11-13T15:55:06.898Z,56.07
2022-11-13T15:57:32.998Z,56.30
2022-11-13T15:59:59.135Z,56.30
2022-11-13T16:02:25.261Z,56.63
2022-11-13T16:04:56.477Z,56.71
2022-11-13T16:07:23.224Z,56.99
2022-11-13T16:09:49.383Z,56.98
2022-11-13T16:12:15.485Z,57.06
2022-11-13T16:14:41.599Z,57.37
2022-11-13T16:17:07.823Z,57.30
2022-11-13T16:19:33.917Z,57.43
2022-11-13T16:22:00.015Z,57.62
2022-11-13T16:24:26.114Z,57.80
2022-11-13T16:26:52.213Z,57.91
2022-11-13T16:29:18.334Z,57.69
2022-11-13T16:31:44.445Z,57.88
2022-11-13T16:34:10.541Z,57.86
2022-11-13T16:36:37.001Z,58.05
2022-11-13T16:39:03.099Z,58.13
2022-11-13T16:41:29.198Z,58.36
2022-11-13T16:43:55.321Z,58.25
2022-11-13T16:46:21.422Z,58.38
2022-11-13T16:48:47.519Z,58.64
2022-11-13T16:51:13.631Z,58.85
2022-11-13T16:53:39.727Z,58.72
2022-11-13T16:56:05.821Z,58.67
2022-11-13T16:58:31.939Z,58.62
2022-11-13T17:01:00.230Z,58.77
2022-11-13T17:03:26.833Z,58.57
2022-11-13T17:05:53.201Z,58.73
2022-11-13T17:08:19.317Z,58.97
2022-11-13T17:10:45.399Z,59.06
2022-11-13T17:13:11.505Z,59.28
2022-11-13T17:15:37.601Z,59.51
2022-11-13T17:18:03.698Z,59.46
2022-11-13T17:20:29.827Z,59.78
2022-11-13T17:22:55.925Z,59.84
2022-11-13T17:25:22.012Z,59.87
2022-11-13T17:27:48.124Z,60.07
2022-11-13T17:30:14.229Z,60.12
2022-11-13T17:32:40.333Z,59.94
2022-11-13T17:35:06.462Z,60.03
2022-11-13T17:37:32.546Z,60.15
2022-11-13T17:39:58.688Z,60.49
2022-11-13T17:42:25.096Z,60.39
2022-11-13T17:44:51.197Z,60.43
2022-11-13T17:47:17.298Z,60.59
2022-11-13T17:49:43.421Z,60.27
2022-11-13T17:52:09.523Z,60.33
2022-11-13T17:54:35.631Z,60.06
2022-11-13T17:57:01.733Z,60.12
2022-11-13T17:59:27.843Z,59.90
2022-11-13T18:01:54.035Z,59.69
2022-11-13T18:04:20.172Z,59.46
2022-11-13T18:06:46.320Z,59.19
2022-11-13T18:09:12.460Z,58.76
2022-11-13T18:11:38.574Z,58.92
2022-11-13T18:14:04.669Z,58.62
2022-11-13T18:16:30.780Z,57.82
2022-11-13T18:18:56.895Z,56.81
2022-11-13T18:21:23.555Z,55.81
2022-11-13T18:23:50.004Z,54.76
2022-11-13T18:26:16.184Z,53.63
2022-11-13T18:28:42.263Z,52.81
2022-11-13T18:31:08.357Z,51.86
2022-11-13T18:33:34.467Z,51.02
2022-11-13T18:36:00.566Z,51.28
2022-11-13T18:38:26.674Z,51.75
2022-11-13T18:40:52.773Z,51.60
2022-11-13T18:43:18.875Z,50.92
2022-11-13T18:45:44.955Z,50.09
2022-11-13T18:48:11.066Z,49.40
2022-11-13T18:50:37.174Z,48.79
2022-11-13T18:53:03.264Z,48.21
2022-11-13T18:55:29.358Z,47.82
2022-11-13T18:57:55.463Z,47.48
2022-11-13T19:00:21.554Z,47.60
2022-11-13T19:02:47.655Z,48.22
2022-11-13T19:05:13.761Z,48.11
2022-11-13T19:07:39.855Z,48.73
2022-11-13T19:10:05.962Z,49.31
2022-11-13T19:12:32.051Z,49.37
2022-11-13T19:14:58.137Z,49.46
2022-11-13T19:17:24.251Z,49.53
2022-11-13T19:19:50.336Z,49.15
2022-11-13T19:22:16.415Z,48.87
2022-11-13T19:24:42.534Z,48.62
2022-11-13T19:27:08.617Z,48.00
2022-11-13T19:29:34.695Z,47.83
2022-11-13T19:32:00.805Z,47.70
2022-11-13T19:34:26.913Z,47.52
2022-11-13T19:36:53.010Z,47.44
2022-11-13T19:39:19.113Z,47.28
2022-11-13T19:41:45.214Z,47.08
2022-11-13T19:44:11.304Z,46.72
2022-11-13T19:46:37.769Z,46.23
2022-11-13T19:49:03.857Z,45.75
2022-11-13T19:51:29.953Z,45.35
2022-11-13T19:53:56.064Z,45.10
2022-11-13T19:56:22.177Z,44.95
2022-11-13T19:58:48.273Z,44.68
2022-11-13T20:01:14.468Z,44.27
2022-11-13T20:03:40.665Z,43.90
2022-11-13T20:06:06.748Z,43.45
2022-11-13T20:08:33.207Z,43.47
2022-11-13T20:10:59.460Z,43.30
2022-11-13T20:13:25.551Z,43.12
2022-11-13T20:15:51.667Z,43.11
2022-11-13T20:18:17.752Z,43.15
2022-11-13T20:20:43.844Z,43.90
2022-11-13T20:23:09.959Z,44.45
2022-11-13T20:25:36.047Z,44.80
2022-11-13T20:28:02.142Z,45.37
2022-11-13T20:30:29.054Z,45.51
2022-11-13T20:32:55.153Z,45.27
2022-11-13T20:35:21.257Z,45.18
2022-11-13T20:37:47.363Z,44.86
2022-11-13T20:40:13.464Z,44.81
2022-11-13T20:42:39.562Z,44.97
2022-11-13T20:45:05.664Z,44.72
2022-11-13T20:47:31.760Z,44.95
2022-11-13T20:49:57.844Z,45.04
2022-11-13T20:52:23.984Z,45.28
2022-11-13T20:54:50.097Z,45.82
2022-11-13T20:57:16.189Z,45.91
2022-11-13T20:59:42.321Z,46.15
2022-11-13T21:02:08.469Z,46.28
2022-11-13T21:04:34.588Z,46.13
2022-11-13T21:07:00.746Z,46.39
2022-11-13T21:09:26.981Z,46.71
2022-11-13T21:11:53.077Z,46.53
2022-11-13T21:14:19.190Z,46.65
2022-11-13T21:16:45.279Z,46.53
2022-11-13T21:19:11.374Z,46.58
2022-11-13T21:21:37.492Z,46.64
2022-11-13T21:24:03.585Z,46.44
2022-11-13T21:26:29.685Z,46.48
2022-11-13T21:28:55.787Z,46.58
2022-11-13T21:31:21.885Z,46.31
2022-11-13T21:33:47.980Z,46.55
2022-11-13T21:36:14.108Z,46.92
2022-11-13T21:38:40.203Z,47.13
2022-11-13T21:41:06.290Z,47.28
2022-11-13T21:43:32.412Z,47.15
2022-11-13T21:45:58.546Z,47.09
2022-11-13T21:48:27.053Z,46.96
2022-11-13T21:50:55.349Z,47.08
2022-11-13T21:53:21.453Z,46.99
2022-11-13T21:55:47.544Z,47.52
2022-11-13T21:58:13.656Z,47.49
2022-11-13T22:00:39.744Z,47.78
2022-11-13T22:03:05.861Z,48.18
2022-11-13T22:05:31.963Z,48.47
2022-11-13T22:07:58.053Z,48.60
2022-11-13T22:10:24.156Z,48.51
2022-11-13T22:12:50.273Z,48.74
2022-11-13T22:15:16.375Z,49.16
2022-11-13T22:17:42.473Z,49.04
2022-11-13T22:20:08.615Z,49.51
2022-11-13T22:22:34.730Z,50.08
2022-11-13T22:25:00.824Z,50.61
2022-11-13T22:27:26.934Z,50.82
2022-11-13T22:29:53.028Z,51.12
2022-11-13T22:32:19.128Z,51.39
2022-11-13T22:34:45.835Z,51.55
2022-11-13T22:37:11.929Z,51.69
2022-11-13T22:39:38.037Z,51.40
2022-11-13T22:42:04.155Z,51.45
2022-11-13T22:44:51.330Z,51.23
2022-11-13T22:47:16.363Z,51.05
2022-11-13T22:49:42.453Z,51.16
2022-11-13T22:52:08.546Z,51.00
2022-11-13T22:54:34.660Z,51.07
2022-11-13T22:57:00.757Z,50.80
2022-11-13T22:59:26.903Z,50.73
2022-11-13T23:01:55.682Z,50.73
2022-11-13T23:04:21.992Z,50.70
2022-11-13T23:06:48.134Z,50.44
2022-11-13T23:09:14.281Z,50.66
2022-11-13T23:11:40.685Z,50.78
2022-11-13T23:14:09.128Z,50.85
2022-11-13T23:16:36.140Z,50.71
2022-11-13T23:19:02.242Z,50.93
2022-11-13T23:21:28.349Z,50.83
2022-11-13T23:23:54.486Z,51.00
2022-11-13T23:26:20.581Z,50.90
2022-11-13T23:28:46.676Z,51.04
2022-11-13T23:31:12.789Z,50.93
2022-11-13T23:33:38.881Z,51.05
2022-11-13T23:36:04.990Z,50.96
2022-11-13T23:38:31.524Z,50.98
2022-11-13T23:40:57.860Z,51.02
2022-11-13T23:43:36.437Z,51.02
2022-11-13T23:46:10.032Z,50.97
2022-11-13T23:48:36.133Z,51.03
2022-11-13T23:51:02.244Z,51.11
2022-11-13T23:53:28.345Z,51.13
2022-11-13T23:55:54.433Z,51.09
2022-11-13T23:58:20.515Z,51.28
